NPT24 EGPH-EDDK
Flight info
| Callsign | NPT24 |
|---|---|
| Flight time | N/A |
| Altitude | 37000 |
| Route | TLA Y96 OTBUN DCT GODOS DCT BERGI DCT PAM L620 SONEB Z841 GETNI T858 KOPAG KOPAG1B |
| Aircraft | B738/M-SDE2E3FGHIRWXY/LB1 |
Departure
| Time | 2026-04-25 22:02 |
|---|---|
| Airport | Edinburgh Airport (EGPH) |
Arrival
| Time | N/A |
|---|---|
| Airport | Cologne Bonn Airport (EDDK) |
| Time | Latitude | Longitude | Altitude | Speed | Heading |
|---|---|---|---|---|---|
| 2026-04-25 21:18 | 55.95163 | -3.35413 | 111 ft | 0 kts | 28° |
| 2026-04-25 21:42 | 55.95149 | -3.35426 | 112 ft | 3 kts | 10° |
| 2026-04-25 21:43 | 55.95127 | -3.35424 | 112 ft | 3 kts | 336° |
| 2026-04-25 21:43 | 55.95108 | -3.35402 | 113 ft | 3 kts | 310° |
| 2026-04-25 21:43 | 55.95100 | -3.35383 | 114 ft | 0 kts | 298° |
| 2026-04-25 21:49 | 55.95101 | -3.35387 | 113 ft | 2 kts | 298° |
| 2026-04-25 21:49 | 55.95117 | -3.35437 | 112 ft | 7 kts | 299° |
| 2026-04-25 21:49 | 55.95142 | -3.35516 | 115 ft | 7 kts | 299° |
| 2026-04-25 21:50 | 55.95166 | -3.35594 | 112 ft | 7 kts | 299° |
| 2026-04-25 21:50 | 55.95189 | -3.35669 | 112 ft | 7 kts | 297° |
| 2026-04-25 21:50 | 55.95211 | -3.35744 | 114 ft | 7 kts | 297° |
| 2026-04-25 21:50 | 55.95227 | -3.35790 | 115 ft | 7 kts | 308° |
| 2026-04-25 21:51 | 55.95273 | -3.35856 | 114 ft | 5 kts | 291° |
| 2026-04-25 21:51 | 55.95261 | -3.35910 | 114 ft | 5 kts | 238° |
| 2026-04-25 21:51 | 55.95249 | -3.35945 | 113 ft | 6 kts | 238° |
| 2026-04-25 21:51 | 55.95223 | -3.36020 | 115 ft | 9 kts | 238° |
| 2026-04-25 21:52 | 55.95186 | -3.36129 | 114 ft | 12 kts | 239° |
| 2026-04-25 21:52 | 55.95139 | -3.36268 | 113 ft | 14 kts | 239° |
| 2026-04-25 21:52 | 55.95085 | -3.36431 | 114 ft | 15 kts | 238° |
| 2026-04-25 21:52 | 55.95030 | -3.36591 | 113 ft | 15 kts | 239° |
| 2026-04-25 21:53 | 55.94978 | -3.36746 | 113 ft | 14 kts | 237° |
| 2026-04-25 21:53 | 55.94927 | -3.36892 | 113 ft | 14 kts | 238° |
| 2026-04-25 21:53 | 55.94880 | -3.37033 | 115 ft | 13 kts | 239° |
| 2026-04-25 21:53 | 55.94834 | -3.37168 | 115 ft | 13 kts | 239° |
| 2026-04-25 21:54 | 55.94788 | -3.37303 | 113 ft | 15 kts | 239° |
| 2026-04-25 21:54 | 55.94719 | -3.37508 | 115 ft | 20 kts | 239° |
| 2026-04-25 21:54 | 55.94650 | -3.37711 | 115 ft | 19 kts | 238° |
| 2026-04-25 21:54 | 55.94583 | -3.37910 | 113 ft | 18 kts | 239° |
| 2026-04-25 21:55 | 55.94518 | -3.38099 | 113 ft | 17 kts | 239° |
| 2026-04-25 21:55 | 55.94460 | -3.38272 | 112 ft | 16 kts | 239° |
| 2026-04-25 21:55 | 55.94403 | -3.38438 | 113 ft | 15 kts | 238° |
| 2026-04-25 21:55 | 55.94349 | -3.38598 | 114 ft | 15 kts | 239° |
| 2026-04-25 21:56 | 55.94299 | -3.38746 | 112 ft | 12 kts | 239° |
| 2026-04-25 21:56 | 55.94279 | -3.38814 | 114 ft | 8 kts | 255° |
| 2026-04-25 21:56 | 55.94311 | -3.38894 | 115 ft | 5 kts | 330° |
| 2026-04-25 21:56 | 55.94313 | -3.38896 | 115 ft | 0 kts | 330° |
| 2026-04-25 21:57 | 55.94314 | -3.38897 | 115 ft | 0 kts | 330° |
| 2026-04-25 21:57 | 55.94315 | -3.38897 | 115 ft | 0 kts | 330° |
| 2026-04-25 22:00 | 55.94421 | -3.38952 | 112 ft | 10 kts | 37° |
| 2026-04-25 22:00 | 55.94433 | -3.38920 | 112 ft | 0 kts | 60° |
| 2026-04-25 22:01 | 55.94472 | -3.38801 | 110 ft | 40 kts | 59° |
| 2026-04-25 22:01 | 55.94625 | -3.38351 | 112 ft | 87 kts | 59° |
| 2026-04-25 22:02 | 55.95233 | -3.36557 | 175 ft | 156 kts | 60° |
| 2026-04-25 22:02 | 55.95786 | -3.34894 | 951 ft | 149 kts | 60° |
| 2026-04-25 22:02 | 55.96437 | -3.33477 | 1739 ft | 152 kts | 43° |
| 2026-04-25 22:02 | 55.97284 | -3.32179 | 2115 ft | 177 kts | 45° |
| 2026-04-25 22:03 | 55.98294 | -3.30574 | 2414 ft | 205 kts | 44° |
| 2026-04-25 22:03 | 55.99403 | -3.28804 | 2614 ft | 226 kts | 45° |
| 2026-04-25 22:03 | 56.00604 | -3.26878 | 3012 ft | 237 kts | 44° |
| 2026-04-25 22:03 | 56.01850 | -3.24876 | 3454 ft | 245 kts | 43° |
| 2026-04-25 22:04 | 56.03136 | -3.22805 | 3967 ft | 249 kts | 41° |
| 2026-04-25 22:04 | 56.04421 | -3.20675 | 4501 ft | 254 kts | 48° |
| 2026-04-25 22:04 | 56.05190 | -3.17898 | 5131 ft | 256 kts | 79° |
| 2026-04-25 22:04 | 56.05283 | -3.14695 | 5650 ft | 264 kts | 95° |
| 2026-04-25 22:05 | 56.05035 | -3.11320 | 6017 ft | 279 kts | 107° |
| 2026-04-25 22:05 | 56.04096 | -3.08324 | 6800 ft | 278 kts | 135° |
| 2026-04-25 22:05 | 56.02626 | -3.06097 | 7613 ft | 277 kts | 144° |
| 2026-04-25 22:05 | 56.01093 | -3.04045 | 8345 ft | 280 kts | 145° |
| 2026-04-25 22:06 | 55.99522 | -3.01940 | 9096 ft | 283 kts | 144° |
| 2026-04-25 22:06 | 55.97932 | -2.99837 | 9856 ft | 285 kts | 150° |
| 2026-04-25 22:06 | 55.96061 | -2.98739 | 10543 ft | 283 kts | 178° |
| 2026-04-25 22:06 | 55.94145 | -2.99337 | 11238 ft | 282 kts | 205° |
| 2026-04-25 22:07 | 55.92383 | -3.00910 | 11948 ft | 285 kts | 208° |
| 2026-04-25 22:07 | 55.91216 | -3.01997 | 12415 ft | 287 kts | 208° |
| 2026-04-25 22:07 | 55.88829 | -3.04154 | 13407 ft | 291 kts | 207° |
| 2026-04-25 22:07 | 55.86989 | -3.05745 | 14170 ft | 294 kts | 206° |
| 2026-04-25 22:08 | 55.85124 | -3.07308 | 14854 ft | 298 kts | 206° |
| 2026-04-25 22:08 | 55.83233 | -3.08860 | 15566 ft | 301 kts | 206° |
| 2026-04-25 22:08 | 55.81334 | -3.10399 | 16264 ft | 304 kts | 206° |
| 2026-04-25 22:08 | 55.79390 | -3.11961 | 16967 ft | 307 kts | 206° |
| 2026-04-25 22:09 | 55.77429 | -3.13530 | 17671 ft | 311 kts | 206° |
| 2026-04-25 22:09 | 55.75447 | -3.15111 | 18349 ft | 314 kts | 206° |
| 2026-04-25 22:09 | 55.73434 | -3.16713 | 18971 ft | 318 kts | 206° |
| 2026-04-25 22:09 | 55.71424 | -3.18309 | 19549 ft | 322 kts | 206° |
| 2026-04-25 22:10 | 55.69324 | -3.19977 | 19765 ft | 340 kts | 206° |
| 2026-04-25 22:10 | 55.67108 | -3.21736 | 19913 ft | 357 kts | 206° |
| 2026-04-25 22:10 | 55.64798 | -3.23563 | 20315 ft | 366 kts | 206° |
| 2026-04-25 22:10 | 55.62454 | -3.25416 | 20894 ft | 369 kts | 206° |
| 2026-04-25 22:11 | 55.60137 | -3.27244 | 21508 ft | 371 kts | 206° |
| 2026-04-25 22:11 | 55.57746 | -3.29019 | 22049 ft | 376 kts | 199° |
| 2026-04-25 22:11 | 55.55123 | -3.29543 | 22548 ft | 386 kts | 177° |
| 2026-04-25 22:11 | 55.52495 | -3.28354 | 23107 ft | 395 kts | 157° |
| 2026-04-25 22:12 | 55.50205 | -3.25600 | 23631 ft | 404 kts | 136° |
| 2026-04-25 22:12 | 55.48578 | -3.21523 | 24083 ft | 412 kts | 115° |
| 2026-04-25 22:12 | 55.47794 | -3.16647 | 24527 ft | 416 kts | 101° |
| 2026-04-25 22:12 | 55.47476 | -3.13294 | 24846 ft | 417 kts | 100° |
| 2026-04-25 22:13 | 55.46835 | -3.06581 | 25413 ft | 421 kts | 101° |
| 2026-04-25 22:13 | 55.46251 | -3.01485 | 25831 ft | 424 kts | 107° |
| 2026-04-25 22:13 | 55.45239 | -2.96599 | 26266 ft | 424 kts | 117° |
| 2026-04-25 22:13 | 55.43822 | -2.92019 | 26687 ft | 426 kts | 121° |
| 2026-04-25 22:14 | 55.42333 | -2.87475 | 27089 ft | 429 kts | 122° |
| 2026-04-25 22:14 | 55.40856 | -2.82960 | 27525 ft | 431 kts | 121° |
| 2026-04-25 22:14 | 55.39378 | -2.78376 | 28065 ft | 429 kts | 121° |
| 2026-04-25 22:14 | 55.37920 | -2.73802 | 28683 ft | 426 kts | 121° |
| 2026-04-25 22:15 | 55.36476 | -2.69265 | 29299 ft | 423 kts | 121° |
| 2026-04-25 22:15 | 55.35033 | -2.64749 | 29829 ft | 423 kts | 121° |
| 2026-04-25 22:15 | 55.33600 | -2.60302 | 30309 ft | 422 kts | 122° |
| 2026-04-25 22:16 | 55.30707 | -2.51349 | 31246 ft | 418 kts | 122° |
| 2026-04-25 22:16 | 55.29271 | -2.46914 | 31707 ft | 416 kts | 122° |
| 2026-04-25 22:16 | 55.27841 | -2.42500 | 32119 ft | 416 kts | 121° |
| 2026-04-25 22:16 | 55.26444 | -2.38061 | 32523 ft | 415 kts | 121° |
| 2026-04-25 22:17 | 55.25075 | -2.33617 | 32960 ft | 413 kts | 120° |
| 2026-04-25 22:17 | 55.23718 | -2.29180 | 33366 ft | 411 kts | 120° |
| 2026-04-25 22:17 | 55.22369 | -2.24771 | 33763 ft | 411 kts | 120° |
| 2026-04-25 22:17 | 55.21030 | -2.20408 | 34157 ft | 409 kts | 120° |
| 2026-04-25 22:18 | 55.19679 | -2.16026 | 34567 ft | 406 kts | 121° |
| 2026-04-25 22:18 | 55.18338 | -2.11689 | 34889 ft | 405 kts | 121° |
| 2026-04-25 22:18 | 55.16988 | -2.07340 | 35108 ft | 407 kts | 121° |
| 2026-04-25 22:18 | 55.15631 | -2.02981 | 35345 ft | 408 kts | 121° |
| 2026-04-25 22:19 | 55.14288 | -1.98677 | 35631 ft | 407 kts | 121° |
| 2026-04-25 22:19 | 55.12935 | -1.94346 | 35914 ft | 406 kts | 121° |
| 2026-04-25 22:19 | 55.11576 | -1.90005 | 36104 ft | 408 kts | 121° |
| 2026-04-25 22:20 | 55.08802 | -1.81178 | 36194 ft | 419 kts | 121° |
| 2026-04-25 22:20 | 55.05950 | -1.72131 | 36297 ft | 430 kts | 121° |
| 2026-04-25 22:21 | 55.03045 | -1.62949 | 36386 ft | 439 kts | 121° |
| 2026-04-25 22:21 | 55.00048 | -1.53507 | 36477 ft | 448 kts | 121° |
| 2026-04-25 22:22 | 54.96987 | -1.43907 | 36546 ft | 457 kts | 121° |
| 2026-04-25 22:22 | 54.93886 | -1.34217 | 36669 ft | 464 kts | 121° |
| 2026-04-25 22:22 | 54.92304 | -1.29290 | 36833 ft | 464 kts | 121° |
| 2026-04-25 22:23 | 54.90729 | -1.24390 | 37073 ft | 463 kts | 121° |
| 2026-04-25 22:23 | 54.89156 | -1.19510 | 37291 ft | 462 kts | 121° |
| 2026-04-25 22:23 | 54.87593 | -1.14671 | 37306 ft | 465 kts | 121° |
| 2026-04-25 22:24 | 54.84414 | -1.04859 | 37304 ft | 463 kts | 120° |
| 2026-04-25 22:24 | 54.81263 | -0.95170 | 37316 ft | 458 kts | 121° |
| 2026-04-25 22:25 | 54.78126 | -0.85566 | 37316 ft | 455 kts | 121° |
| 2026-04-25 22:25 | 54.75021 | -0.76096 | 37317 ft | 453 kts | 121° |
| 2026-04-25 22:26 | 54.71875 | -0.66542 | 37332 ft | 459 kts | 121° |
| 2026-04-25 22:26 | 54.68697 | -0.56930 | 37328 ft | 465 kts | 121° |
| 2026-04-25 22:27 | 54.65465 | -0.47190 | 37322 ft | 467 kts | 121° |
| 2026-04-25 22:27 | 54.62241 | -0.37510 | 37319 ft | 467 kts | 121° |
| 2026-04-25 22:28 | 54.58987 | -0.27781 | 37319 ft | 467 kts | 121° |
| 2026-04-25 22:28 | 54.55746 | -0.18132 | 37319 ft | 466 kts | 121° |
| 2026-04-25 22:29 | 54.52484 | -0.08453 | 37320 ft | 465 kts | 121° |
| 2026-04-25 22:29 | 54.49225 | 0.01174 | 37314 ft | 464 kts | 121° |
| 2026-04-25 22:30 | 54.44351 | 0.15503 | 37318 ft | 463 kts | 121° |
| 2026-04-25 22:30 | 54.41645 | 0.23423 | 37321 ft | 462 kts | 121° |
| 2026-04-25 22:31 | 54.37854 | 0.34473 | 37318 ft | 462 kts | 121° |
| 2026-04-25 22:31 | 54.34578 | 0.43983 | 37318 ft | 461 kts | 121° |
| 2026-04-25 22:32 | 54.31306 | 0.53447 | 37318 ft | 461 kts | 121° |
| 2026-04-25 22:32 | 54.28044 | 0.62842 | 37317 ft | 461 kts | 121° |
| 2026-04-25 22:33 | 54.24759 | 0.72269 | 37317 ft | 460 kts | 121° |
| 2026-04-25 22:33 | 54.21491 | 0.81613 | 37313 ft | 460 kts | 121° |
| 2026-04-25 22:34 | 54.18191 | 0.91012 | 37322 ft | 461 kts | 121° |